createdAt,value
2023-10-22T00:00:08.958Z,99045.69
2023-10-22T00:02:36.861Z,99049.94
2023-10-22T00:05:07.134Z,99052.19
2023-10-22T00:07:34.205Z,99054.97
2023-10-22T00:10:00.797Z,99062.41
2023-10-22T00:12:27.450Z,99060.66
2023-10-22T00:14:54.250Z,99066.22
2023-10-22T00:17:20.865Z,99067.25
2023-10-22T00:19:47.799Z,99066.94
2023-10-22T00:22:15.538Z,99059.03
2023-10-22T00:24:42.582Z,99063.53
2023-10-22T00:27:09.114Z,99063.91
2023-10-22T00:29:35.914Z,99062.91
2023-10-22T00:32:02.485Z,99064.13
2023-10-22T00:34:29.555Z,99060.25
2023-10-22T00:36:56.194Z,99062.94
2023-10-22T00:39:22.692Z,99061.28
2023-10-22T00:41:49.153Z,99066.84
2023-10-22T00:44:15.607Z,99068.50
2023-10-22T00:46:47.824Z,99075.47
2023-10-22T00:49:16.540Z,99071.69
2023-10-22T00:51:44.082Z,99078.22
2023-10-22T00:54:11.714Z,99067.25
2023-10-22T00:56:39.258Z,99079.03
2023-10-22T00:59:06.075Z,99073.50
2023-10-22T01:01:32.785Z,99072.28
2023-10-22T01:03:59.483Z,99073.28
2023-10-22T01:06:26.859Z,99074.16
2023-10-22T01:08:55.270Z,99074.97
2023-10-22T01:11:21.803Z,99082.16
2023-10-22T01:13:48.821Z,99080.78
2023-10-22T01:16:15.354Z,99076.50
2023-10-22T01:18:41.927Z,99073.34
2023-10-22T01:21:09.459Z,99081.09
2023-10-22T01:23:38.049Z,99080.47
2023-10-22T01:26:07.652Z,99087.28
2023-10-22T01:28:37.679Z,99092.25
2023-10-22T01:31:11.625Z,99102.25
2023-10-22T01:33:38.816Z,99101.75
2023-10-22T01:36:05.559Z,99098.72
2023-10-22T01:38:32.117Z,99096.25
2023-10-22T01:40:58.482Z,99107.88
2023-10-22T01:43:24.919Z,99108.84
2023-10-22T01:45:51.325Z,99106.38
2023-10-22T01:48:17.866Z,99099.59
2023-10-22T01:50:44.588Z,99103.56
2023-10-22T01:53:11.042Z,99100.53
2023-10-22T01:55:37.672Z,99099.88
2023-10-22T01:58:04.142Z,99108.84
2023-10-22T02:00:31.413Z,99109.63
2023-10-22T02:02:57.962Z,99107.22
2023-10-22T02:05:24.521Z,99109.88
2023-10-22T02:07:51.053Z,99112.09
2023-10-22T02:10:17.557Z,99116.09
2023-10-22T02:12:44.216Z,99113.16
2023-10-22T02:15:10.862Z,99128.78
2023-10-22T02:17:38.405Z,99118.75
2023-10-22T02:20:10.733Z,99125.66
2023-10-22T02:22:38.578Z,99126.13
2023-10-22T02:25:06.648Z,99116.59
2023-10-22T02:27:33.566Z,99122.50
2023-10-22T02:30:00.184Z,99133.00
2023-10-22T02:32:26.749Z,99135.41
2023-10-22T02:34:53.279Z,99134.53
2023-10-22T02:37:20.915Z,99137.13
2023-10-22T02:39:48.038Z,99138.06
2023-10-22T02:42:14.996Z,99150.94
2023-10-22T02:44:41.607Z,99147.03
2023-10-22T02:47:08.053Z,99143.50
2023-10-22T02:49:34.582Z,99139.19
2023-10-22T02:52:01.138Z,99141.13
2023-10-22T02:54:27.796Z,99140.34
2023-10-22T02:56:54.223Z,99144.53
2023-10-22T02:59:20.647Z,99157.25
2023-10-22T03:01:47.061Z,99153.69
2023-10-22T03:04:13.726Z,99160.94
2023-10-22T03:06:40.278Z,99156.88
2023-10-22T03:09:06.785Z,99155.97
2023-10-22T03:11:33.198Z,99156.41
2023-10-22T03:13:59.675Z,99160.31
2023-10-22T03:16:26.152Z,99161.78
2023-10-22T03:18:52.644Z,99162.59
2023-10-22T03:21:20.546Z,99155.25
2023-10-22T03:23:48.976Z,99162.25
2023-10-22T03:26:17.492Z,99161.84
2023-10-22T03:28:44.558Z,99153.44
2023-10-22T03:31:11.166Z,99160.31
2023-10-22T03:33:37.776Z,99161.47
2023-10-22T03:36:05.409Z,99164.69
2023-10-22T03:38:32.803Z,99165.53
2023-10-22T03:41:03.289Z,99168.19
2023-10-22T03:43:30.510Z,99168.19
2023-10-22T03:45:57.622Z,99164.75
2023-10-22T03:48:24.941Z,99166.19
2023-10-22T03:50:51.698Z,99170.31
2023-10-22T03:53:19.374Z,99178.59
2023-10-22T03:55:47.397Z,99180.66
2023-10-22T03:58:13.820Z,99186.13
2023-10-22T04:00:40.247Z,99195.38
2023-10-22T04:03:06.933Z,99194.22
2023-10-22T04:05:33.616Z,99202.94
2023-10-22T04:08:00.248Z,99205.09
2023-10-22T04:10:26.685Z,99218.88
2023-10-22T04:12:53.188Z,99212.88
2023-10-22T04:15:19.788Z,99214.66
2023-10-22T04:17:50.346Z,99219.63
2023-10-22T04:20:17.433Z,99214.66
2023-10-22T04:22:44.771Z,99215.50
2023-10-22T04:25:12.515Z,99222.59
2023-10-22T04:27:39.045Z,99218.09
2023-10-22T04:30:06.386Z,99218.00
2023-10-22T04:32:34.533Z,99225.56
2023-10-22T04:35:01.562Z,99227.75
2023-10-22T04:37:29.076Z,99227.38
2023-10-22T04:40:00.061Z,99235.88
2023-10-22T04:42:28.914Z,99230.53
2023-10-22T04:44:56.137Z,99228.41
2023-10-22T04:47:22.741Z,99230.53
2023-10-22T04:49:54.604Z,99234.81
2023-10-22T04:52:32.261Z,99237.03
2023-10-22T04:55:00.695Z,99244.97
2023-10-22T04:57:28.063Z,99243.34
2023-10-22T04:59:54.811Z,99244.88
2023-10-22T05:02:21.634Z,99246.13
2023-10-22T05:04:51.935Z,99246.66
2023-10-22T05:07:18.775Z,99252.53
2023-10-22T05:09:45.399Z,99254.53
2023-10-22T05:12:11.951Z,99258.72
2023-10-22T05:14:38.616Z,99267.53
2023-10-22T05:17:06.519Z,99260.84
2023-10-22T05:19:33.067Z,99260.28
2023-10-22T05:21:59.535Z,99264.59
2023-10-22T05:24:26.927Z,99272.88
2023-10-22T05:26:53.710Z,99267.72
2023-10-22T05:29:20.376Z,99276.50
2023-10-22T05:31:46.786Z,99280.53
2023-10-22T05:34:13.207Z,99286.22
2023-10-22T05:36:39.607Z,99289.97
2023-10-22T05:39:06.049Z,99296.53
2023-10-22T05:41:32.503Z,99292.53
2023-10-22T05:44:01.188Z,99300.81
2023-10-22T05:46:34.054Z,99298.50
2023-10-22T05:49:01.536Z,99300.91
2023-10-22T05:51:28.039Z,99300.31
2023-10-22T05:53:54.691Z,99306.56
2023-10-22T05:56:25.848Z,99300.16
2023-10-22T05:58:52.413Z,99303.03
2023-10-22T06:01:19.102Z,99304.34
2023-10-22T06:03:47.497Z,99313.16
2023-10-22T06:06:21.564Z,99311.22
2023-10-22T06:08:48.154Z,99313.16
2023-10-22T06:11:15.355Z,99322.41
2023-10-22T06:13:42.381Z,99319.00
2023-10-22T06:16:09.095Z,99329.09
2023-10-22T06:18:35.762Z,99334.09
2023-10-22T06:21:13.244Z,99332.63
2023-10-22T06:23:39.930Z,99335.59
2023-10-22T06:26:09.978Z,99339.75
2023-10-22T06:28:36.532Z,99340.22
2023-10-22T06:31:13.432Z,99341.38
2023-10-22T06:33:41.659Z,99346.13
2023-10-22T06:36:17.703Z,99338.81
2023-10-22T06:38:45.767Z,99350.16
2023-10-22T06:41:13.781Z,99354.94
2023-10-22T06:43:40.391Z,99361.63
2023-10-22T06:46:06.814Z,99366.22
2023-10-22T06:48:33.335Z,99368.81
2023-10-22T06:51:00.239Z,99367.19
2023-10-22T06:53:26.655Z,99376.72
2023-10-22T06:55:54.105Z,99378.19
2023-10-22T06:58:20.690Z,99374.72
2023-10-22T07:00:47.069Z,99376.72
2023-10-22T07:03:13.601Z,99374.56
2023-10-22T07:05:40.028Z,99379.22
2023-10-22T07:08:06.647Z,99375.22
2023-10-22T07:10:33.288Z,99384.41
2023-10-22T07:12:59.791Z,99392.06
2023-10-22T07:15:26.175Z,99386.81
2023-10-22T07:17:52.858Z,99393.13
2023-10-22T07:20:19.646Z,99396.16
2023-10-22T07:22:46.027Z,99397.97
2023-10-22T07:25:12.519Z,99400.38
2023-10-22T07:27:38.920Z,99401.16
2023-10-22T07:30:06.026Z,99405.72
2023-10-22T07:32:32.487Z,99418.94
2023-10-22T07:34:59.413Z,99421.50
2023-10-22T07:37:25.864Z,99417.31
2023-10-22T07:39:52.279Z,99422.66
2023-10-22T07:42:18.682Z,99429.09
2023-10-22T07:44:45.125Z,99436.63
2023-10-22T07:47:11.570Z,99439.41
2023-10-22T07:49:37.957Z,99443.44
2023-10-22T07:52:05.132Z,99447.97
2023-10-22T07:54:31.562Z,99447.25
2023-10-22T07:56:58.803Z,99450.50
2023-10-22T07:59:25.291Z,99451.94
2023-10-22T08:01:51.738Z,99453.59
2023-10-22T08:04:18.297Z,99454.16
2023-10-22T08:06:44.736Z,99452.69
2023-10-22T08:09:11.224Z,99457.28
2023-10-22T08:11:37.699Z,99467.22
2023-10-22T08:14:04.225Z,99466.75
2023-10-22T08:16:32.669Z,99470.69
2023-10-22T08:18:59.123Z,99474.31
2023-10-22T08:21:25.684Z,99476.69
2023-10-22T08:23:52.178Z,99478.56
2023-10-22T08:26:18.808Z,99471.13
2023-10-22T08:28:45.197Z,99478.53
2023-10-22T08:31:11.638Z,99489.84
2023-10-22T08:33:38.144Z,99485.16
2023-10-22T08:36:06.278Z,99488.69
2023-10-22T08:38:32.920Z,99488.50
2023-10-22T08:41:01.743Z,99497.72
2023-10-22T08:43:33.422Z,99491.38
2023-10-22T08:46:00.022Z,99497.50
2023-10-22T08:48:28.174Z,99495.69
2023-10-22T08:50:57.595Z,99498.94
2023-10-22T08:53:24.122Z,99495.28
2023-10-22T08:55:50.545Z,99501.97
2023-10-22T08:58:19.576Z,99498.94
2023-10-22T09:00:47.769Z,99502.28
2023-10-22T09:03:15.640Z,99500.88
2023-10-22T09:05:43.497Z,99498.13
2023-10-22T09:08:10.392Z,99499.00
2023-10-22T09:10:38.798Z,99520.34
2023-10-22T09:13:08.310Z,99513.31
2023-10-22T09:15:43.131Z,99520.75
2023-10-22T09:18:09.700Z,99517.63
2023-10-22T09:20:36.632Z,99521.00
2023-10-22T09:23:20.268Z,99514.75
2023-10-22T09:25:48.570Z,99519.63
2023-10-22T09:28:22.241Z,99517.78
2023-10-22T09:30:54.763Z,99524.00
2023-10-22T09:33:32.216Z,99533.94
2023-10-22T09:36:12.616Z,99529.53
2023-10-22T09:38:49.924Z,99527.78
2023-10-22T09:41:29.710Z,99535.66
2023-10-22T09:43:59.240Z,99543.50
2023-10-22T09:46:35.478Z,99545.25
2023-10-22T09:49:08.888Z,99544.88
2023-10-22T09:51:36.698Z,99548.66
2023-10-22T09:54:06.858Z,99541.44
2023-10-22T09:56:38.733Z,99548.91
2023-10-22T09:59:08.849Z,99540.19
2023-10-22T10:01:37.220Z,99546.56
2023-10-22T10:04:04.478Z,99536.22
2023-10-22T10:06:31.576Z,99544.56
2023-10-22T10:09:00.220Z,99545.44
2023-10-22T10:11:28.274Z,99547.81
2023-10-22T10:13:54.679Z,99539.88
2023-10-22T10:16:24.482Z,99552.13
2023-10-22T10:19:03.953Z,99551.34
2023-10-22T10:21:45.275Z,99553.81
2023-10-22T10:24:24.680Z,99553.34
2023-10-22T10:26:57.629Z,99566.09
2023-10-22T10:29:26.598Z,99561.38
2023-10-22T10:31:55.225Z,99553.84
2023-10-22T10:34:37.572Z,99565.13
2023-10-22T10:37:18.268Z,99565.72
2023-10-22T10:39:48.462Z,99560.53
2023-10-22T10:42:35.552Z,99559.03
2023-10-22T10:45:02.184Z,99566.75
2023-10-22T10:47:47.071Z,99569.38
2023-10-22T10:50:19.492Z,99572.03
2023-10-22T10:53:06.937Z,99566.66
2023-10-22T10:55:33.916Z,99564.00
2023-10-22T10:58:02.028Z,99571.47
2023-10-22T11:00:32.145Z,99581.63
2023-10-22T11:03:01.328Z,99567.72
2023-10-22T11:05:33.245Z,99581.84
2023-10-22T11:08:00.100Z,99582.94
2023-10-22T11:10:28.678Z,99573.97
2023-10-22T11:13:03.384Z,99587.13
2023-10-22T11:15:38.654Z,99587.13
2023-10-22T11:18:07.612Z,99582.59
2023-10-22T11:20:34.516Z,99583.69
2023-10-22T11:23:01.657Z,99594.38
2023-10-22T11:25:28.888Z,99582.59
2023-10-22T11:27:55.478Z,99591.41
2023-10-22T11:30:39.216Z,99588.84
2023-10-22T11:33:10.514Z,99594.22
2023-10-22T11:35:38.661Z,99592.91
2023-10-22T11:38:07.320Z,99591.31
2023-10-22T11:40:37.723Z,99589.69
2023-10-22T11:43:14.989Z,99588.94
2023-10-22T11:45:52.453Z,99593.47
2023-10-22T11:48:21.597Z,99593.03
2023-10-22T11:50:50.204Z,99592.59
2023-10-22T11:53:18.130Z,99597.31
2023-10-22T11:55:46.613Z,99599.81
2023-10-22T11:58:20.929Z,99603.38
2023-10-22T12:00:48.347Z,99598.75
2023-10-22T12:03:15.246Z,99608.41
2023-10-22T12:05:43.018Z,99606.25
2023-10-22T12:08:09.416Z,99603.25
2023-10-22T12:10:35.824Z,99604.75
2023-10-22T12:13:02.833Z,99604.41
2023-10-22T12:15:29.655Z,99595.81
2023-10-22T12:17:56.927Z,99608.25
2023-10-22T12:20:23.810Z,99610.97
2023-10-22T12:22:50.458Z,99613.53
2023-10-22T12:25:16.879Z,99614.63
2023-10-22T12:27:43.705Z,99615.00
2023-10-22T12:30:10.513Z,99619.78
2023-10-22T12:32:37.164Z,99617.72
2023-10-22T12:35:04.049Z,99621.53
2023-10-22T12:37:30.498Z,99626.06
2023-10-22T12:39:56.930Z,99628.75
2023-10-22T12:42:23.385Z,99633.03
2023-10-22T12:44:49.922Z,99629.31
2023-10-22T12:47:16.567Z,99628.97
2023-10-22T12:49:43.756Z,99633.69
2023-10-22T12:52:14.380Z,99635.44
2023-10-22T12:54:44.122Z,99637.78
2023-10-22T12:57:12.250Z,99640.47
2023-10-22T12:59:40.339Z,99636.81
2023-10-22T13:02:07.145Z,99648.88
2023-10-22T13:04:33.895Z,99646.19
2023-10-22T13:07:00.589Z,99648.13
2023-10-22T13:09:27.235Z,99643.28
2023-10-22T13:11:53.790Z,99650.25
2023-10-22T13:14:21.451Z,99654.66
2023-10-22T13:16:48.046Z,99653.06
2023-10-22T13:19:14.492Z,99654.97
2023-10-22T13:21:40.934Z,99659.50
2023-10-22T13:24:07.828Z,99659.84
2023-10-22T13:26:34.262Z,99661.97
2023-10-22T13:29:07.441Z,99666.72
2023-10-22T13:31:35.077Z,99668.97
2023-10-22T13:34:01.972Z,99666.09
2023-10-22T13:36:28.414Z,99673.59
2023-10-22T13:38:54.899Z,99662.72
2023-10-22T13:41:21.757Z,99675.66
2023-10-22T13:43:48.263Z,99668.03
2023-10-22T13:46:14.717Z,99674.66
2023-10-22T13:48:41.278Z,99675.13
2023-10-22T13:51:08.262Z,99675.63
2023-10-22T13:53:35.025Z,99675.84
2023-10-22T13:56:01.478Z,99682.28
2023-10-22T13:58:31.038Z,99683.16
2023-10-22T14:00:57.687Z,99683.47
2023-10-22T14:03:24.229Z,99697.16
2023-10-22T14:05:51.791Z,99685.78
2023-10-22T14:08:20.717Z,99684.03
2023-10-22T14:10:49.514Z,99679.69
2023-10-22T14:13:17.733Z,99681.53
2023-10-22T14:15:46.064Z,99682.59
2023-10-22T14:18:12.880Z,99683.56
2023-10-22T14:20:39.583Z,99688.22
2023-10-22T14:23:06.020Z,99691.00
2023-10-22T14:25:32.463Z,99697.59
2023-10-22T14:27:58.965Z,99689.22
2023-10-22T14:30:25.578Z,99699.41
2023-10-22T14:32:52.137Z,99695.84
2023-10-22T14:35:18.609Z,99697.75
2023-10-22T14:37:45.160Z,99692.31
2023-10-22T14:40:11.903Z,99690.06
2023-10-22T14:42:38.453Z,99694.03
2023-10-22T14:45:05.726Z,99699.06
2023-10-22T14:47:32.210Z,99686.38
2023-10-22T14:49:58.605Z,99691.19
2023-10-22T14:52:25.075Z,99690.47
2023-10-22T14:54:51.483Z,99695.00
2023-10-22T14:57:17.971Z,99701.19
2023-10-22T14:59:44.486Z,99696.63
2023-10-22T15:02:11.093Z,99698.97
2023-10-22T15:04:37.959Z,99697.66
2023-10-22T15:07:04.926Z,99702.63
2023-10-22T15:09:31.571Z,99705.50
2023-10-22T15:11:58.064Z,99704.00
2023-10-22T15:14:24.621Z,99704.97
2023-10-22T15:16:51.021Z,99709.84
2023-10-22T15:19:17.446Z,99703.41
2023-10-22T15:21:44.618Z,99716.84
2023-10-22T15:24:11.113Z,99719.81
2023-10-22T15:26:38.201Z,99719.75
2023-10-22T15:29:04.709Z,99721.44
2023-10-22T15:31:31.379Z,99715.50
2023-10-22T15:33:57.900Z,99716.19
2023-10-22T15:36:24.499Z,99727.16
2023-10-22T15:38:50.957Z,99729.09
2023-10-22T15:41:17.421Z,99724.44
2023-10-22T15:43:44.677Z,99727.31
2023-10-22T15:46:20.933Z,99732.19
2023-10-22T15:48:47.993Z,99729.03
2023-10-22T15:51:18.514Z,99734.22
2023-10-22T15:53:45.889Z,99737.97
2023-10-22T15:56:13.327Z,99740.69
2023-10-22T15:58:39.735Z,99739.78
2023-10-22T16:01:06.391Z,99742.78
2023-10-22T16:03:32.847Z,99732.91
2023-10-22T16:06:01.159Z,99736.94
2023-10-22T16:08:27.933Z,99738.50
2023-10-22T16:10:54.399Z,99737.25
2023-10-22T16:13:20.930Z,99736.22
2023-10-22T16:15:47.411Z,99753.28
2023-10-22T16:18:15.427Z,99743.44
2023-10-22T16:20:41.907Z,99744.94
2023-10-22T16:23:11.353Z,99753.91
2023-10-22T16:25:45.282Z,99753.53
2023-10-22T16:28:12.654Z,99756.66
2023-10-22T16:30:44.558Z,99753.69
2023-10-22T16:33:13.603Z,99768.25
2023-10-22T16:35:40.532Z,99774.97
2023-10-22T16:38:06.933Z,99774.81
2023-10-22T16:40:36.921Z,99773.47
2023-10-22T16:43:03.380Z,99774.53
2023-10-22T16:45:29.885Z,99787.38
2023-10-22T16:47:56.346Z,99796.22
2023-10-22T16:50:22.834Z,99785.56
2023-10-22T16:52:49.251Z,99794.22
2023-10-22T16:55:15.656Z,99806.06
2023-10-22T16:57:42.192Z,99806.59
2023-10-22T17:00:12.042Z,99811.09
2023-10-22T17:02:38.910Z,99806.09
2023-10-22T17:05:05.848Z,99808.88
2023-10-22T17:07:34.649Z,99800.66
2023-10-22T17:10:01.890Z,99801.50
2023-10-22T17:12:28.379Z,99799.78
2023-10-22T17:14:55.005Z,99807.72
2023-10-22T17:17:21.478Z,99815.09
2023-10-22T17:19:49.157Z,99820.56
2023-10-22T17:22:15.806Z,99816.84
2023-10-22T17:24:42.532Z,99820.22
2023-10-22T17:27:09.015Z,99826.16
2023-10-22T17:29:35.595Z,99837.28
2023-10-22T17:32:02.716Z,99838.06
2023-10-22T17:34:29.562Z,99829.91
2023-10-22T17:36:56.278Z,99848.03
2023-10-22T17:39:23.342Z,99840.75
2023-10-22T17:41:50.220Z,99844.56
2023-10-22T17:44:17.076Z,99844.38
2023-10-22T17:46:43.874Z,99847.19
2023-10-22T17:49:10.872Z,99855.88
2023-10-22T17:51:37.797Z,99863.66
2023-10-22T17:54:07.387Z,99862.88
2023-10-22T17:56:34.901Z,99866.59
2023-10-22T17:59:01.831Z,99871.06
2023-10-22T18:01:28.783Z,99867.38
2023-10-22T18:03:55.859Z,99871.63
2023-10-22T18:06:23.072Z,99876.47
2023-10-22T18:08:50.026Z,99873.38
2023-10-22T18:11:20.621Z,99883.72
2023-10-22T18:13:47.608Z,99879.72
2023-10-22T18:16:20.261Z,99878.72
2023-10-22T18:18:47.503Z,99882.41
2023-10-22T18:21:14.754Z,99882.44
2023-10-22T18:23:41.836Z,99879.06
2023-10-22T18:26:09.883Z,99886.31
2023-10-22T18:28:36.882Z,99874.75
2023-10-22T18:31:08.242Z,99884.16
2023-10-22T18:33:36.298Z,99878.63
2023-10-22T18:36:13.651Z,99881.34
2023-10-22T18:38:41.720Z,99880.06
2023-10-22T18:41:10.663Z,99882.56
2023-10-22T18:43:46.569Z,99880.06
2023-10-22T18:46:20.257Z,99883.53
2023-10-22T18:48:49.005Z,99879.63
2023-10-22T18:51:19.846Z,99878.94
2023-10-22T18:53:47.844Z,99878.06
2023-10-22T18:56:20.150Z,99882.28
2023-10-22T18:58:48.006Z,99886.94
2023-10-22T19:01:24.738Z,99881.28
2023-10-22T19:04:00.237Z,99889.34
2023-10-22T19:06:29.347Z,99889.56
2023-10-22T19:09:03.490Z,99885.97
2023-10-22T19:11:33.942Z,99896.88
2023-10-22T19:14:03.786Z,99901.25
2023-10-22T19:16:38.136Z,99900.66
2023-10-22T19:19:07.361Z,99906.91
2023-10-22T19:21:42.868Z,99905.97
2023-10-22T19:24:10.532Z,99907.78
2023-10-22T19:26:39.956Z,99904.56
2023-10-22T19:29:07.011Z,99908.44
2023-10-22T19:31:35.072Z,99911.78
2023-10-22T19:34:02.351Z,99918.97
2023-10-22T19:36:30.599Z,99920.53
2023-10-22T19:38:57.572Z,99926.53
2023-10-22T19:41:24.984Z,99938.44
2023-10-22T19:43:53.095Z,99940.25
2023-10-22T19:46:20.146Z,99945.00
2023-10-22T19:48:48.485Z,99951.19
2023-10-22T19:51:15.627Z,99955.03
2023-10-22T19:53:42.604Z,99960.38
2023-10-22T19:56:19.209Z,99959.84
2023-10-22T19:58:47.243Z,99965.47
2023-10-22T20:01:24.731Z,99964.69
2023-10-22T20:03:53.854Z,99962.16
2023-10-22T20:06:23.277Z,99958.16
2023-10-22T20:08:51.494Z,99959.25
2023-10-22T20:11:18.771Z,99961.59
2023-10-22T20:13:46.821Z,99969.38
2023-10-22T20:16:22.117Z,99963.44
2023-10-22T20:18:50.198Z,99969.09
2023-10-22T20:21:21.533Z,99964.03
2023-10-22T20:23:48.939Z,99963.66
2023-10-22T20:26:15.927Z,99964.44
2023-10-22T20:28:45.261Z,99978.13
2023-10-22T20:31:13.399Z,99968.75
2023-10-22T20:33:42.082Z,99973.75
2023-10-22T20:36:11.724Z,99972.03
2023-10-22T20:38:39.181Z,99974.97
2023-10-22T20:41:07.151Z,99972.09
2023-10-22T20:43:34.057Z,99972.59
2023-10-22T20:46:08.204Z,99970.91
2023-10-22T20:48:36.230Z,99971.97
2023-10-22T20:51:07.651Z,99973.19
2023-10-22T20:53:38.116Z,99968.84
2023-10-22T20:56:08.277Z,99974.00
2023-10-22T20:58:35.591Z,99969.66
2023-10-22T21:01:02.936Z,99978.97
2023-10-22T21:03:29.585Z,99975.19
2023-10-22T21:05:56.303Z,99975.72
2023-10-22T21:08:22.752Z,99980.81
2023-10-22T21:10:49.253Z,99982.13
2023-10-22T21:13:15.765Z,99987.91
2023-10-22T21:15:42.630Z,99982.94
2023-10-22T21:18:09.869Z,99992.47
2023-10-22T21:20:36.457Z,99987.97
2023-10-22T21:23:03.166Z,99986.53
2023-10-22T21:25:29.608Z,99989.66
2023-10-22T21:27:56.300Z,99992.78
2023-10-22T21:30:22.952Z,99988.03
2023-10-22T21:32:49.484Z,99987.22
2023-10-22T21:35:15.929Z,99987.41
2023-10-22T21:37:42.400Z,99992.75
2023-10-22T21:40:09.371Z,99987.50
2023-10-22T21:42:36.156Z,99987.69
2023-10-22T21:45:04.098Z,99978.50
2023-10-22T21:47:31.180Z,99984.81
2023-10-22T21:49:57.678Z,99978.97
2023-10-22T21:52:24.421Z,99986.66
2023-10-22T21:54:51.243Z,99988.03
2023-10-22T21:57:17.980Z,99995.97
2023-10-22T21:59:44.435Z,99979.13
2023-10-22T22:02:11.217Z,99979.88
2023-10-22T22:04:37.937Z,99983.94
2023-10-22T22:07:04.708Z,99984.00
2023-10-22T22:09:31.171Z,99984.00
2023-10-22T22:11:57.620Z,99984.78
2023-10-22T22:14:23.986Z,99985.94
2023-10-22T22:16:50.370Z,99986.06
2023-10-22T22:19:16.847Z,99983.47
2023-10-22T22:21:43.313Z,99980.50
2023-10-22T22:24:09.928Z,99986.81
2023-10-22T22:26:36.897Z,99992.84
2023-10-22T22:29:03.777Z,99990.44
2023-10-22T22:31:30.293Z,99987.78
2023-10-22T22:33:56.933Z,99993.91
2023-10-22T22:36:24.591Z,99986.47
2023-10-22T22:38:52.669Z,99994.34
2023-10-22T22:41:19.160Z,99987.72
2023-10-22T22:43:45.527Z,99988.94
2023-10-22T22:46:12.022Z,99997.78
2023-10-22T22:48:38.542Z,99998.06
2023-10-22T22:51:04.994Z,100005.34
2023-10-22T22:53:31.419Z,100011.78
2023-10-22T22:55:57.789Z,100018.31
2023-10-22T22:58:24.267Z,100021.38
2023-10-22T23:00:50.840Z,100010.69
2023-10-22T23:03:17.378Z,100018.88
2023-10-22T23:05:44.204Z,100021.28
2023-10-22T23:08:10.868Z,100027.50
2023-10-22T23:10:37.337Z,100030.59
2023-10-22T23:13:03.827Z,100030.06
2023-10-22T23:15:30.637Z,100026.16
2023-10-22T23:17:57.144Z,100032.22
2023-10-22T23:20:23.580Z,100027.50
2023-10-22T23:22:50.024Z,100023.41
2023-10-22T23:25:16.534Z,100033.47
2023-10-22T23:27:43.046Z,100033.38
2023-10-22T23:30:10.149Z,100042.78
2023-10-22T23:32:36.725Z,100045.75
2023-10-22T23:35:03.175Z,100040.03
2023-10-22T23:37:29.626Z,100034.69
2023-10-22T23:39:56.163Z,100038.44
2023-10-22T23:42:22.569Z,100042.97
2023-10-22T23:44:48.992Z,100045.84
2023-10-22T23:47:16.074Z,100046.81
2023-10-22T23:49:42.477Z,100034.94
2023-10-22T23:52:09.366Z,100040.03
2023-10-22T23:54:35.860Z,100045.84
2023-10-22T23:57:02.289Z,100036.97
2023-10-22T23:59:28.697Z,100045.13
